嘉手納 の空港の天気 - METARとTAF

嘉手納基地 ( RODN / DNA ) - 沖縄県沖縄市
飛行場実況気象(Metar)
観測時間07/07 20:56 JST (07/07 11:56 UTC)
風向・風速南 5m/s
視程10km以上
天気現象
全天の8割程度の雲 雲底高度 610m
気温29.2℃
湿度83%
気圧1011.9hPa
METARRODN 071156Z AUTO 18009KT 10SM BKN020 29/26 A2987 RMK AO2 SLP119 T02920260 10322 20292 51007 $
過去の天気等 Google飛行場航空写真 Wunderground天気予報

過去48時間のMETAR

飛行場予報(TAF)
発表時間: 7/07 17:00 JST (7/07 08:00 UTC)
予報対象時間: 7日17時 JST ~ 8日23時 JST
風向・風速南南西 6m/s 瞬間風速 9m/s
視程10km以上
全天の4割程度の雲 雲底高度 610m
全天の8割程度の雲 雲底高度 3050m
8日3時 JST ~ 8日4時 JST に徐々に
風向・風速南南西 6m/s 瞬間風速 9m/s
視程8000m
天気現象弱いしゅう雨
全天の8割程度の雲 雲底高度 610m
8日16時 JST ~ 8日17時 JST に徐々に
風向・風速南南西 5m/s 瞬間風速 8m/s
視程10km以上
天気現象運行に影響にある天気現象が終了
全天の4割程度の雲 雲底高度 610m
TAF RODN 070800Z 0708/0814 21012G18KT 9999 SCT020 BKN100 QNH2980INS
BECMG 0718/0719 20012G18KT 8000 -SHRA BKN020 QNH2979INS
BECMG 0807/0808 21010G15KT 9999 NSW SCT020 QNH2980INS TX32/0803Z TN27/0718Z
日本の空港のMETAR・TAFへのリンク

RJTT 東京国際空港
RJAA 新東京国際空港
RJBB 関西国際空港
RJOO 大阪空港
RJGG 中部国際空港
RJCC 新千歳空港
RJFF 福岡空港
ROAH 那覇空港


RJEC 旭川空港
RJCH 函館空港
RJCK 釧路空港
RJCM 女満別空港
RJCB 帯広空港
RJSA 青森空港
RJSS 仙台空港
RJSK 秋田空港
RJSF 福島空港
RJAH 茨城空港
RJSN 新潟空港
RJNT 富山空港
RJNK 小松飛行場
RJNS 静岡空港
RJOH 美保飛行場
RJOC 出雲空港
RJOB 岡山空港
RJOA 広島空港
RJOI 岩国飛行場
RJOT 高松空港
RJOM 松山空港
RJOK 高知空港
RJFR 北九州空港
RJFT 熊本空港
RJFU 長崎空港
RJFS 佐賀空港
RJFO 大分空港
RJFM 宮崎空港
RJFK 鹿児島空港
ROIG 石垣島空港
RJTY 横田飛行場
ROTM 普天間飛行場
RODN 嘉手納飛行場